CYAS

Kangirsuk Supplementary Aviation Weather Reporting Airport

Kangirsuk, Canada

CYAS 252100Z 34011KT 15SM BKN034 03/M05 A2997 RMK SC7 LAST STFD OBS/NEXT 261200UTC SLP158

Observed Flight Rules
Sep-25 @ 21:00 UTC (5 hours ago)
 
Visual Flight Rules
Wind Visibility Clouds
340° at 11 knots 15 miles
  • Broken at 3,400' AGL
Temperatures Readings
Current 3°C / 37°F
Dewpoint -5°C / 23°F
Humidity 56%
Altimeter 29.97" Hg
Pressure 1015.8 hPa
Elevation 117
Observed Flight Rules
Sep-25 @ 21:00 UTC
(5 hours ago)
 
VFR
Wind Visibility
340° at 11 knots 15 miles
Clouds
  • Broken at 3,400' AGL
Temperature Dewpoint
3°C / 37°F -5°C / 23°F
Humidity Altimeter Pressure
56% 29.97" Hg 1015.8 hPa